Time;durP1;ratioP1;P1;durP2;ratioP2;P2;SDS_P1;SDS_P2;PMS_P1;PMS_P2;Temp;Humidity;BMP_temperature;BMP_pressure;BME280_temperature;BME280_humidity;BME280_pressure;Samples;Min_cycle;Max_cycle;Signal;HPM_P1;HPM_P2
2020/12/04 00:02:09;;;;;;;33.88;17.02;;;;;;;2.50;75.79;101428.31;1741395;80;21144;-41
2020/12/04 00:04:37;;;;;;;32.33;18.45;;;;;;;2.51;75.76;101426.10;1739167;80;22005;-42
2020/12/04 00:07:04;;;;;;;35.33;18.17;;;;;;;2.51;75.79;101422.15;1737327;81;21713;-39
2020/12/04 00:09:33;;;;;;;37.85;18.87;;;;;;;2.52;75.81;101430.05;1733031;82;21557;-39
2020/12/04 00:12:00;;;;;;;34.53;17.55;;;;;;;2.54;75.81;101429.56;1735440;80;21976;-37
2020/12/04 00:14:28;;;;;;;36.48;16.95;;;;;;;2.56;75.85;101430.88;1730731;82;21149;-38
2020/12/04 00:16:56;;;;;;;34.70;17.77;;;;;;;2.57;75.79;101433.92;1733702;81;21161;-40
2020/12/04 00:19:23;;;;;;;32.50;17.20;;;;;;;2.55;75.78;101428.69;1730871;80;21145;-43
2020/12/04 00:21:51;;;;;;;32.08;17.12;;;;;;;2.53;75.83;101422.56;1735259;80;21141;-40
2020/12/04 00:24:18;;;;;;;27.62;15.35;;;;;;;2.55;75.89;101429.14;1675518;84;21178;-39
2020/12/04 00:26:46;;;;;;;26.97;13.98;;;;;;;2.56;75.88;101424.29;1675690;85;21849;-41
2020/12/04 00:29:13;;;;;;;26.30;16.02;;;;;;;2.56;75.92;101424.29;1677111;83;22081;-41
2020/12/04 00:31:41;;;;;;;32.17;15.50;;;;;;;2.57;75.94;101426.92;1678263;83;21165;-40
2020/12/04 00:34:09;;;;;;;35.90;18.92;;;;;;;2.57;75.95;101425.61;1678784;85;21156;-40
2020/12/04 00:36:37;;;;;;;33.42;18.37;;;;;;;2.57;75.95;101420.34;1676927;83;21165;-40
2020/12/04 00:39:05;;;;;;;35.63;19.80;;;;;;;2.56;75.99;101413.30;1674712;85;21160;-39
2020/12/04 00:41:32;;;;;;;30.97;16.48;;;;;;;2.57;76.00;101415.48;1676169;84;21173;-40
2020/12/04 00:44:00;;;;;;;32.65;18.05;;;;;;;2.57;75.90;101409.80;1675836;83;21160;-40
2020/12/04 00:46:28;;;;;;;33.28;20.05;;;;;;;2.57;75.91;101409.80;1676884;83;21555;-40
2020/12/04 00:48:56;;;;;;;37.93;21.65;;;;;;;2.56;75.91;101405.86;1675311;84;21152;-41
2020/12/04 00:51:24;;;;;;;43.75;24.55;;;;;;;2.54;75.94;101407.63;1674368;83;21156;-43
2020/12/04 00:53:54;;;;;;;32.90;19.48;;;;;;;2.55;75.97;101405.44;1675771;85;21142;-42
2020/12/04 00:56:22;;;;;;;35.23;19.62;;;;;;;2.56;75.99;101400.59;1673564;83;21145;-41
2020/12/04 00:58:50;;;;;;;35.48;22.05;;;;;;;2.57;75.97;101394.00;1636711;85;21150;-35
2020/12/04 01:01:17;;;;;;;34.40;21.52;;;;;;;2.58;75.98;101385.20;1722441;81;21154;-37
2020/12/04 01:03:45;;;;;;;39.15;21.35;;;;;;;2.58;75.99;101395.73;1727585;81;21165;-39
2020/12/04 01:06:13;;;;;;;37.33;22.02;;;;;;;2.62;75.97;101395.27;1726033;81;21161;-37
2020/12/04 01:08:42;;;;;;;30.50;18.50;;;;;;;2.64;75.85;101391.28;1718596;82;21597;-40
2020/12/04 01:11:11;;;;;;;30.70;18.07;;;;;;;2.64;75.83;101384.25;1670831;84;21154;-42
2020/12/04 01:13:38;;;;;;;30.30;18.17;;;;;;;2.65;75.81;101389.96;1726856;81;21141;-41
2020/12/04 01:16:10;;;;;;;29.15;17.98;;;;;;;2.63;75.84;101397.45;1733126;81;21130;-38
2020/12/04 01:18:41;;;;;;;37.63;21.77;;;;;;;2.61;75.84;101390.88;1723564;82;21141;-40
2020/12/04 01:21:13;;;;;;;35.88;18.77;;;;;;;2.62;75.85;101393.05;1724532;81;21141;-42
2020/12/04 01:23:41;;;;;;;26.12;15.23;;;;;;;2.62;75.82;101391.32;1723875;81;21162;-38
2020/12/04 01:26:08;;;;;;;26.42;15.35;;;;;;;2.63;75.84;101390.88;1731703;81;21663;-39
2020/12/04 01:28:36;;;;;;;31.68;19.30;;;;;;;2.64;75.77;101389.97;1728245;81;21161;-40
2020/12/04 01:31:03;;;;;;;34.58;21.95;;;;;;;2.62;75.86;101386.47;1729113;82;21153;-38
2020/12/04 01:33:32;;;;;;;31.12;20.17;;;;;;;2.60;75.95;101379.47;1713726;82;21149;-40
2020/12/04 01:36:00;;;;;;;35.78;19.17;;;;;;;2.62;75.98;101380.78;1729625;81;21165;-37
2020/12/04 01:38:27;;;;;;;28.95;15.95;;;;;;;2.63;75.97;101381.20;1723732;81;21129;-40
2020/12/04 01:41:00;;;;;;;26.12;14.70;;;;;;;2.65;75.95;101389.96;1727991;81;21150;-37
2020/12/04 01:43:28;;;;;;;31.27;16.55;;;;;;;2.65;75.96;101390.41;1725649;81;21140;-40
2020/12/04 01:45:56;;;;;;;26.05;15.35;;;;;;;2.65;75.99;101389.96;1727456;81;21109;-41
2020/12/04 01:48:24;;;;;;;25.68;15.43;;;;;;;2.68;76.01;101393.87;1716856;82;21144;-41
2020/12/04 01:50:52;;;;;;;26.23;14.73;;;;;;;2.68;76.00;101393.00;1682158;82;21419;-37
2020/12/04 01:53:20;;;;;;;29.37;15.08;;;;;;;2.68;76.08;101389.05;1666196;84;21149;-39
2020/12/04 01:55:47;;;;;;;22.27;13.18;;;;;;;2.67;76.07;101392.14;1674670;85;21205;-40
2020/12/04 01:58:17;;;;;;;24.92;14.38;;;;;;;2.65;76.11;101389.09;1728720;81;21153;-40
2020/12/04 02:00:45;;;;;;;27.67;14.45;;;;;;;2.65;76.17;101387.33;1734694;81;21117;-41
2020/12/04 02:03:14;;;;;;;25.55;12.65;;;;;;;2.65;76.22;101393.91;1723768;81;21180;-42
2020/12/04 02:05:48;;;;;;;25.70;13.80;;;;;;;2.67;76.30;101392.56;1729118;81;21154;-40
2020/12/04 02:08:36;;;;;;;25.85;14.47;;;;;;;2.67;76.26;101388.19;1723511;81;21577;-43
2020/12/04 02:11:17;;;;;;;22.25;13.68;;;;;;;2.66;76.29;101387.74;1728316;82;21181;-40
2020/12/04 02:13:45;;;;;;;25.70;14.35;;;;;;;2.67;76.37;101396.09;1721256;81;21173;-40
2020/12/04 02:16:19;;;;;;;22.95;12.47;;;;;;;2.69;76.35;101388.16;1730978;81;21146;-39
2020/12/04 02:18:47;;;;;;;28.47;13.65;;;;;;;2.70;76.34;101392.09;1721225;81;21138;-40
2020/12/04 02:21:15;;;;;;;26.27;14.80;;;;;;;2.69;76.43;101391.66;1730120;81;21145;-40
2020/12/04 02:23:47;;;;;;;24.07;13.98;;;;;;;2.68;76.49;101385.97;1727554;81;21133;-41
2020/12/04 02:26:18;;;;;;;28.00;15.48;;;;;;;2.70;76.58;101386.83;1728648;82;21149;-41
2020/12/04 02:28:46;;;;;;;24.10;13.38;;;;;;;2.74;76.49;101381.93;1729662;81;21513;-40
2020/12/04 02:31:14;;;;;;;26.27;14.00;;;;;;;2.74;76.42;101384.56;1719306;82;21926;-40
2020/12/04 02:33:43;;;;;;;21.62;13.18;;;;;;;2.75;76.43;101383.69;1732165;81;21142;-39
2020/12/04 02:36:11;;;;;;;21.50;12.82;;;;;;;2.73;76.46;101384.16;1729601;82;21146;-39
2020/12/04 02:38:39;;;;;;;23.87;13.22;;;;;;;2.70;76.45;101384.19;1722316;81;21542;-43
2020/12/04 02:41:07;;;;;;;21.95;11.93;;;;;;;2.69;76.53;101381.56;1724408;81;21438;-39
2020/12/04 02:43:35;;;;;;;22.17;12.80;;;;;;;2.71;76.56;101382.42;1721732;81;21177;-37
2020/12/04 02:46:03;;;;;;;27.77;14.07;;;;;;;2.74;76.53;101383.25;1726276;81;21153;-40
2020/12/04 02:48:30;;;;;;;22.73;13.03;;;;;;;2.74;76.51;101383.25;1724069;82;21323;-43
2020/12/04 02:50:58;;;;;;;26.55;14.25;;;;;;;2.73;76.62;101373.61;1725492;81;21137;-39
2020/12/04 02:53:25;;;;;;;23.85;13.85;;;;;;;2.73;76.54;101372.30;1730019;81;21573;-40
2020/12/04 02:55:53;;;;;;;21.95;12.85;;;;;;;2.75;76.50;101376.24;1723561;81;21164;-38
2020/12/04 02:58:21;;;;;;;27.85;15.35;;;;;;;2.74;76.50;101372.71;1731300;80;21149;-35
2020/12/04 03:00:48;;;;;;;30.00;15.15;;;;;;;2.73;76.49;101379.34;1732112;82;21149;-40
2020/12/04 03:03:15;;;;;;;23.52;15.05;;;;;;;2.72;76.62;101379.78;1740792;80;21146;-40
2020/12/04 03:05:43;;;;;;;26.07;15.28;;;;;;;2.73;76.57;101376.70;1699996;82;21610;-36
2020/12/04 03:08:10;;;;;;;23.70;13.18;;;;;;;2.75;76.55;101375.80;1674608;83;21637;-38
2020/12/04 03:10:38;;;;;;;24.65;13.62;;;;;;;2.76;76.49;101377.97;1675838;85;21639;-40
2020/12/04 03:13:06;;;;;;;27.30;16.15;;;;;;;2.74;76.61;101380.61;1675879;83;21125;-39
2020/12/04 03:15:33;;;;;;;25.60;14.03;;;;;;;2.76;76.64;101372.70;1676894;83;21666;-43
2020/12/04 03:18:01;;;;;;;25.72;12.75;;;;;;;2.76;76.60;101373.57;1677395;83;21141;-37
2020/12/04 03:20:28;;;;;;;26.42;12.90;;;;;;;2.77;76.57;101377.97;1684952;83;21593;-45
2020/12/04 03:22:56;;;;;;;21.70;13.62;;;;;;;2.76;76.58;101370.94;1677549;85;21445;-40
2020/12/04 03:25:25;;;;;;;25.75;15.00;;;;;;;2.76;76.62;101374.89;1686383;83;21303;-39
2020/12/04 03:27:52;;;;;;;23.15;13.50;;;;;;;2.76;76.64;101371.39;1683443;83;21161;-39
2020/12/04 03:30:20;;;;;;;24.90;13.15;;;;;;;2.78;76.65;101369.61;1677931;83;21164;-40
2020/12/04 03:32:47;;;;;;;22.80;12.90;;;;;;;2.78;76.67;101366.98;1676384;85;21133;-42
2020/12/04 03:35:15;;;;;;;30.17;13.43;;;;;;;2.78;76.64;101364.34;1676706;85;21684;-39
2020/12/04 03:37:43;;;;;;;25.50;14.07;;;;;;;2.77;76.64;101360.84;1678363;83;21561;-40
2020/12/04 03:40:10;;;;;;;28.07;16.27;;;;;;;2.78;76.69;101361.26;1673867;85;21592;-46
2020/12/04 03:42:38;;;;;;;24.05;14.03;;;;;;;2.79;76.68;101360.35;1673280;85;21168;-40
2020/12/04 03:45:05;;;;;;;25.82;12.75;;;;;;;2.78;76.74;101362.58;1678085;83;21142;-40
2020/12/04 03:47:33;;;;;;;27.58;14.35;;;;;;;2.81;76.68;101362.98;1675316;85;21156;-37
2020/12/04 03:50:02;;;;;;;25.00;14.65;;;;;;;2.82;76.71;101358.13;1677184;83;21146;-37
2020/12/04 03:52:30;;;;;;;24.02;14.23;;;;;;;2.83;76.75;101353.75;1674878;83;21148;-55
2020/12/04 03:54:57;;;;;;;26.82;15.03;;;;;;;2.83;76.74;101360.34;1678072;83;21169;-39
2020/12/04 03:57:25;;;;;;;24.75;13.32;;;;;;;2.83;76.75;101351.98;1671808;85;21651;-40
2020/12/04 03:59:52;;;;;;;23.02;14.05;;;;;;;2.83;76.79;101346.72;1677982;83;21177;-37
2020/12/04 04:02:20;;;;;;;30.82;15.10;;;;;;;2.84;76.81;101346.27;1690000;84;21139;-37
2020/12/04 04:04:48;;;;;;;27.52;14.40;;;;;;;2.85;76.80;101345.36;1685695;83;21189;-40
2020/12/04 04:07:15;;;;;;;24.23;13.43;;;;;;;2.84;76.75;101344.95;1695171;83;21113;-39
2020/12/04 04:09:44;;;;;;;26.70;13.93;;;;;;;2.83;76.80;101345.84;1696935;84;21165;-42
2020/12/04 04:12:11;;;;;;;27.77;14.55;;;;;;;2.81;76.85;101344.54;1689727;83;21152;-40
2020/12/04 04:14:39;;;;;;;22.67;15.13;;;;;;;2.83;76.93;101353.75;1693398;83;21145;-39
2020/12/04 04:17:08;;;;;;;26.25;15.50;;;;;;;2.82;76.96;101350.22;1685859;83;21616;-38
2020/12/04 04:19:35;;;;;;;28.12;12.37;;;;;;;2.81;77.02;101353.31;1684488;84;21452;-42
2020/12/04 04:22:03;;;;;;;24.85;13.50;;;;;;;2.82;77.05;101355.48;1696907;84;21120;-37
2020/12/04 04:24:30;;;;;;;28.23;13.75;;;;;;;2.84;77.08;101358.12;1697243;83;21113;-41
2020/12/04 04:26:58;;;;;;;26.60;14.68;;;;;;;2.83;77.10;101359.89;1699471;83;21159;-38
2020/12/04 04:29:25;;;;;;;28.73;14.98;;;;;;;2.84;77.15;101364.70;1687231;84;21177;-38
2020/12/04 04:31:53;;;;;;;28.12;14.15;;;;;;;2.85;77.18;101359.42;1695103;83;21169;-45
2020/12/04 04:34:21;;;;;;;29.05;14.90;;;;;;;2.85;77.18;101358.11;1683588;84;22021;-45
2020/12/04 04:36:49;;;;;;;26.57;14.23;;;;;;;2.87;77.26;101355.44;1684680;83;21129;-41
2020/12/04 04:39:17;;;;;;;24.15;13.68;;;;;;;2.89;77.29;101357.16;1683454;84;21456;-39
2020/12/04 04:41:44;;;;;;;30.30;15.35;;;;;;;2.88;77.33;101356.75;1691864;84;21176;-46
2020/12/04 04:44:12;;;;;;;24.85;13.22;;;;;;;2.90;77.35;101367.25;1695763;83;21206;-42
2020/12/04 04:46:53;;;;;;;24.25;12.03;;;;;;;2.92;77.37;101370.73;1643085;84;21635;-47
2020/12/04 04:49:27;;;;;;;25.00;13.58;;;;;;;2.92;77.35;101367.66;1676953;84;21167;-42
2020/12/04 04:51:56;;;;;;;23.07;14.00;;;;;;;2.94;77.30;101368.97;1714500;83;21161;-40
2020/12/04 04:54:24;;;;;;;26.62;14.03;;;;;;;2.92;77.32;101366.79;1681538;83;21121;-41
2020/12/04 04:56:52;;;;;;;22.25;12.18;;;;;;;2.93;77.35;101372.50;1680489;83;21157;-37
2020/12/04 04:59:21;;;;;;;26.90;13.93;;;;;;;2.95;77.37;101370.28;1714996;82;21521;-39
2020/12/04 05:01:49;;;;;;;25.10;12.80;;;;;;;2.95;77.38;101369.41;1746590;80;21554;-39
2020/12/04 05:04:18;;;;;;;25.92;14.20;;;;;;;2.95;77.46;101372.91;1742768;82;21137;-41
2020/12/04 05:06:45;;;;;;;24.07;13.20;;;;;;;2.95;77.45;101366.77;1744276;82;21130;-37
2020/12/04 05:09:28;;;;;;;19.48;11.75;;;;;;;2.95;77.43;101365.00;1742583;81;21137;-38
2020/12/04 05:11:59;;;;;;;22.58;13.65;;;;;;;2.95;77.43;101369.41;1744574;80;22091;-40
2020/12/04 05:14:27;;;;;;;27.80;13.78;;;;;;;2.95;77.43;101375.55;1743901;82;21445;-39
2020/12/04 05:16:56;;;;;;;21.82;12.78;;;;;;;2.95;77.46;101372.05;1743457;81;21858;-39
2020/12/04 05:19:36;;;;;;;23.02;12.28;;;;;;;2.96;77.44;101375.95;1744303;82;21188;-49
2020/12/04 05:22:16;;;;;;;22.48;12.40;;;;;;;2.99;77.42;101375.91;1739270;82;21514;-41
2020/12/04 05:24:45;;;;;;;22.13;12.37;;;;;;;3.00;77.41;101376.81;1744006;80;21113;-38
2020/12/04 05:27:29;;;;;;;17.57;11.60;;;;;;;3.02;77.43;101369.73;1733744;81;21145;-37
2020/12/04 05:34:24;;;;;;;18.92;11.53;;;;;;;3.10;77.27;101376.21;1750021;79;24124;-37
2020/12/04 05:36:52;;;;;;;18.70;11.35;;;;;;;3.05;77.32;101368.39;1728323;81;21133;-36
2020/12/04 05:39:19;;;;;;;20.65;11.45;;;;;;;3.06;77.35;101375.84;1717355;80;21126;-37
2020/12/04 05:41:48;;;;;;;18.27;10.70;;;;;;;3.06;77.31;101369.27;1723672;82;21151;-38
2020/12/04 05:44:18;;;;;;;21.02;11.35;;;;;;;3.07;77.31;101374.48;1716223;82;21570;-41
2020/12/04 05:46:53;;;;;;;16.42;12.03;;;;;;;3.09;77.22;101381.94;1699728;82;21857;-37
2020/12/04 05:49:20;;;;;;;17.50;11.05;;;;;;;3.10;77.24;101374.89;1700837;82;21565;-39
2020/12/04 05:51:52;;;;;;;18.37;10.75;;;;;;;3.10;77.20;101373.16;1700738;82;21114;-38
2020/12/04 05:54:21;;;;;;;17.20;9.55;;;;;;;3.13;77.22;101384.97;1698894;82;21175;-36
2020/12/04 05:56:51;;;;;;;19.62;10.53;;;;;;;3.13;77.20;101384.11;1701828;83;21593;-44
2020/12/04 05:59:21;;;;;;;16.93;10.20;;;;;;;3.15;77.17;101387.14;1699335;82;21146;-37
2020/12/04 06:01:48;;;;;;;19.12;11.93;;;;;;;3.20;77.36;101392.33;1697479;82;21177;-36
2020/12/04 06:04:18;;;;;;;21.00;12.25;;;;;;;3.23;77.14;101396.27;1703050;82;21162;-38
2020/12/04 06:06:46;;;;;;;20.32;11.95;;;;;;;3.25;77.10;101398.41;1699852;82;21439;-38
2020/12/04 06:09:13;;;;;;;18.75;12.35;;;;;;;3.25;76.97;101396.67;1701599;82;21509;-38
2020/12/04 06:11:48;;;;;;;21.42;11.95;;;;;;;3.24;76.85;101398.00;1698956;83;21602;-38
2020/12/04 06:14:21;;;;;;;20.02;12.55;;;;;;;3.23;76.82;101401.54;1700907;82;21170;-39
2020/12/04 06:17:06;;;;;;;23.00;13.20;;;;;;;3.24;76.67;101405.91;1699966;83;21165;-39
2020/12/04 06:19:35;;;;;;;22.80;14.03;;;;;;;3.24;76.63;101415.12;1704083;82;21187;-37
2020/12/04 06:22:09;;;;;;;24.75;14.28;;;;;;;3.23;76.55;101412.95;1697862;82;21161;-39
2020/12/04 06:24:59;;;;;;;24.80;14.95;;;;;;;3.24;76.59;101412.05;1699678;83;21142;-37
2020/12/04 06:27:46;;;;;;;23.20;12.90;;;;;;;3.27;76.49;101412.91;1702587;82;21157;-36
2020/12/04 06:30:15;;;;;;;23.00;13.55;;;;;;;3.27;76.33;101417.72;1702318;82;21644;-37
2020/12/04 06:32:49;;;;;;;22.05;12.90;;;;;;;3.28;76.25;101412.03;1699094;83;21118;-40
2020/12/04 06:35:42;;;;;;;22.80;13.20;;;;;;;3.28;76.15;101412.03;1709839;83;21145;-37
2020/12/04 06:38:39;;;;;;;26.30;15.58;;;;;;;3.27;76.11;101408.95;1609388;87;21142;-38
2020/12/04 06:41:29;;;;;;;26.48;14.43;;;;;;;3.27;76.12;101414.22;1608889;87;21186;-38
2020/12/04 06:44:18;;;;;;;30.90;16.70;;;;;;;3.27;76.08;101423.45;1605424;87;21197;-37
2020/12/04 06:46:58;;;;;;;27.50;15.85;;;;;;;3.24;75.94;101413.36;1609881;87;21213;-41
2020/12/04 06:49:38;;;;;;;25.17;13.80;;;;;;;3.22;76.06;101411.19;1607293;87;21177;-39
2020/12/04 06:52:16;;;;;;;31.10;20.65;;;;;;;3.24;76.02;101419.95;1784525;79;27783;-42
2020/12/04 06:54:49;;;;;;;26.45;16.27;;;;;;;3.21;76.00;101432.31;1774939;79;21706;-39
2020/12/04 06:57:21;;;;;;;27.62;14.87;;;;;;;3.30;76.12;101428.67;1774813;80;21130;-37
2020/12/04 06:59:49;;;;;;;29.07;15.32;;;;;;;3.33;76.05;101432.61;1782308;79;21129;-36
2020/12/04 07:02:28;;;;;;;27.82;14.58;;;;;;;3.34;76.00;101426.43;1772475;80;21102;-39
2020/12/04 07:05:28;;;;;;;;;;;;;;;3.33;75.92;101441.39;1776110;79;21162;-37
2020/12/04 07:08:08;;;;;;;23.92;13.68;;;;;;;3.33;75.85;101437.44;1775542;79;20151;-38
2020/12/04 07:10:39;;;;;;;24.77;14.87;;;;;;;3.34;75.75;101429.06;1775158;80;21165;-36
2020/12/04 07:13:06;;;;;;;24.70;14.58;;;;;;;3.34;75.83;101432.57;1779479;79;21170;-35
2020/12/04 07:15:35;;;;;;;27.15;15.48;;;;;;;3.35;75.72;101422.47;1783401;79;21141;-38
2020/12/04 07:18:03;;;;;;;29.52;15.40;;;;;;;3.36;75.73;101428.61;1773503;79;21132;-37
2020/12/04 07:20:32;;;;;;;24.15;13.80;;;;;;;3.36;75.71;101436.52;1776729;79;21569;-39
2020/12/04 07:23:00;;;;;;;27.05;15.78;;;;;;;3.38;75.64;101438.70;1775626;79;21144;-38
2020/12/04 07:25:28;;;;;;;24.60;15.48;;;;;;;3.38;75.64;101438.23;1775213;79;21131;-35
2020/12/04 07:27:55;;;;;;;26.90;16.42;;;;;;;3.39;75.62;101440.42;1774098;79;21149;-36
2020/12/04 07:30:25;;;;;;;26.70;15.25;;;;;;;3.38;75.64;101442.65;1770161;79;21693;-37
2020/12/04 07:32:53;;;;;;;28.15;15.32;;;;;;;3.40;75.66;101439.52;1769658;79;21183;-36
2020/12/04 07:35:22;;;;;;;28.05;16.40;;;;;;;3.40;75.54;101443.05;1772606;79;21157;-36
2020/12/04 07:37:50;;;;;;;29.67;17.10;;;;;;;3.42;75.49;101441.23;1773235;79;21149;-38
2020/12/04 07:40:18;;;;;;;27.13;15.25;;;;;;;3.41;75.52;101453.15;1777059;79;21262;-38
2020/12/04 07:42:48;;;;;;;24.72;15.55;;;;;;;3.41;75.56;101446.10;1770677;79;21141;-37
2020/12/04 07:45:17;;;;;;;27.58;16.87;;;;;;;3.42;75.50;101445.20;1775425;79;21188;-39
2020/12/04 07:47:45;;;;;;;30.12;16.42;;;;;;;3.44;75.45;101444.73;1774479;79;21512;-38
2020/12/04 07:50:13;;;;;;;28.12;16.67;;;;;;;3.44;75.45;101435.50;1778113;79;21153;-41
2020/12/04 07:52:51;;;;;;;28.23;16.25;;;;;;;3.44;75.42;101445.19;1761028;80;21170;-36
2020/12/04 07:55:20;;;;;;;28.47;15.15;;;;;;;3.45;75.34;101442.96;1736518;80;21166;-40
2020/12/04 07:58:04;;;;;;;28.63;16.07;;;;;;;3.46;75.43;101446.05;1763376;80;21558;-38
2020/12/04 08:00:33;;;;;;;29.77;16.93;;;;;;;3.49;75.47;101452.59;1761345;80;21141;-38
2020/12/04 08:03:04;;;;;;;30.27;18.02;;;;;;;3.51;75.40;101462.68;1753079;80;21149;-40
2020/12/04 08:05:34;;;;;;;34.05;18.52;;;;;;;3.52;75.40;101463.55;1662742;83;21182;-40
2020/12/04 08:08:02;;;;;;;34.67;18.05;;;;;;;3.53;75.26;101467.91;1758419;80;21122;-39
2020/12/04 08:10:30;;;;;;;32.95;16.40;;;;;;;3.52;75.16;101479.37;1757741;80;21582;-39
2020/12/04 08:12:58;;;;;;;27.35;15.58;;;;;;;3.50;75.23;101473.23;1761010;80;21451;-38
2020/12/04 08:15:26;;;;;;;29.75;17.37;;;;;;;3.50;75.30;101462.69;1752762;80;21974;-38
2020/12/04 08:18:06;;;;;;;31.33;17.48;;;;;;;3.49;75.33;101464.91;1758357;80;21491;-39
2020/12/04 08:20:34;;;;;;;28.55;18.25;;;;;;;3.50;75.36;101469.28;1763481;80;21112;-37
2020/12/04 08:23:02;;;;;;;33.95;16.17;;;;;;;3.49;75.24;101473.69;1758677;80;21125;-38
2020/12/04 08:25:30;;;;;;;28.80;15.80;;;;;;;3.50;75.23;101483.78;1763901;80;21977;-38
2020/12/04 08:27:58;;;;;;;34.73;19.48;;;;;;;3.52;75.23;101481.55;1756953;80;21299;-37
2020/12/04 08:30:27;;;;;;;38.05;19.80;;;;;;;3.53;75.27;101476.72;1759932;80;21121;-39
2020/12/04 08:33:01;;;;;;;32.33;18.90;;;;;;;3.54;75.27;101478.91;1756243;80;21117;-36
2020/12/04 08:35:35;;;;;;;29.48;15.60;;;;;;;3.57;75.37;101478.86;1756913;80;21133;-38
2020/12/04 08:38:16;;;;;;;30.08;15.72;;;;;;;3.57;75.31;101474.91;1761732;80;21145;-37
2020/12/04 08:43:24;;;;;;;29.02;15.83;;;;;;;3.59;75.28;101470.03;1765834;79;22964;-36
2020/12/04 08:45:55;;;;;;;27.52;15.20;;;;;;;3.54;75.31;101465.72;1715633;82;21148;-35
2020/12/04 08:48:25;;;;;;;31.02;16.07;;;;;;;3.55;75.37;101464.81;1721389;82;21697;-35
2020/12/04 08:50:56;;;;;;;29.70;16.07;;;;;;;3.57;75.35;101465.67;1721114;82;21122;-37
2020/12/04 08:53:24;;;;;;;26.97;15.68;;;;;;;3.56;75.38;101464.80;1714657;82;21307;-37
2020/12/04 08:55:53;;;;;;;26.93;14.93;;;;;;;3.57;75.35;101472.27;1725288;82;21137;-37
2020/12/04 08:58:22;;;;;;;28.57;15.32;;;;;;;3.53;75.25;101468.81;1723808;82;21157;-37
2020/12/04 09:00:51;;;;;;;25.85;14.98;;;;;;;3.50;75.34;101463.55;1721291;82;21469;-39
2020/12/04 09:03:20;;;;;;;24.47;13.72;;;;;;;3.51;75.38;101465.77;1711353;82;21148;-39
2020/12/04 09:05:48;;;;;;;26.42;14.93;;;;;;;3.50;75.35;101467.51;1712966;82;21303;-41
2020/12/04 09:08:16;;;;;;;28.85;15.20;;;;;;;3.49;75.48;101468.87;1717842;82;21295;-39
2020/12/04 09:10:44;;;;;;;26.42;13.65;;;;;;;3.47;75.35;101467.55;1716121;82;21149;-38
2020/12/04 09:13:11;;;;;;;22.00;14.05;;;;;;;3.46;75.34;101471.97;1715602;82;21134;-37
2020/12/04 09:15:39;;;;;;;20.88;11.20;;;;;;;3.46;75.33;101471.97;1721270;82;21161;-38
2020/12/04 09:18:07;;;;;;;23.07;13.10;;;;;;;3.46;75.37;101474.61;1714924;82;21161;-40
2020/12/04 09:20:35;;;;;;;23.40;13.10;;;;;;;3.45;75.35;101466.28;1715912;82;21161;-40
2020/12/04 09:23:03;;;;;;;27.58;13.85;;;;;;;3.46;75.40;101471.10;1713408;82;21153;-40
2020/12/04 09:25:32;;;;;;;29.12;14.68;;;;;;;3.47;75.38;101462.28;1719066;82;21173;-40
2020/12/04 09:28:01;;;;;;;22.32;11.95;;;;;;;3.44;75.18;101465.83;1718171;82;21671;-38
2020/12/04 09:30:29;;;;;;;24.15;14.05;;;;;;;3.42;75.24;101469.38;1716944;82;21138;-38
2020/12/04 09:32:56;;;;;;;28.40;16.42;;;;;;;3.40;75.36;101468.52;1713677;82;21156;-39
2020/12/04 09:35:24;;;;;;;24.50;14.90;;;;;;;3.40;75.44;101466.78;1724411;82;21181;-38
2020/12/04 09:37:52;;;;;;;32.45;15.72;;;;;;;3.42;75.44;101468.06;1714377;82;21150;-36
2020/12/04 09:44:39;;;;;;;28.38;15.35;;;;;;;3.51;75.49;101460.49;1881312;74;24919;-38
2020/12/04 09:47:06;;;;;;;27.87;16.35;;;;;;;3.48;75.52;101457.45;1814403;75;21499;-38
2020/12/04 09:49:34;;;;;;;28.00;15.90;;;;;;;3.46;75.54;101457.46;1812313;76;21140;-38
2020/12/04 09:52:03;;;;;;;24.87;14.83;;;;;;;3.44;75.69;101456.60;1811887;77;21153;-38
2020/12/04 09:54:32;;;;;;;26.97;15.98;;;;;;;3.44;75.76;101464.52;1831764;77;22043;-38
2020/12/04 09:56:59;;;;;;;31.02;17.42;;;;;;;3.45;75.78;101460.11;1825208;77;21161;-38
2020/12/04 09:59:27;;;;;;;29.72;16.15;;;;;;;3.47;75.91;101463.60;1813660;77;21125;-39
2020/12/04 10:01:55;;;;;;;32.00;17.05;;;;;;;3.49;75.95;101464.45;1827072;77;21133;-39
2020/12/04 10:04:24;;;;;;;25.80;14.90;;;;;;;3.52;75.93;101460.45;1746264;79;21148;-37
2020/12/04 10:06:52;;;;;;;30.45;18.57;;;;;;;3.52;75.81;101450.36;1753096;80;21141;-37
2020/12/04 10:09:20;;;;;;;33.15;20.05;;;;;;;3.51;75.76;101452.58;1759186;80;21122;-40
2020/12/04 10:11:48;;;;;;;33.33;18.77;;;;;;;3.51;75.80;101453.45;1756647;80;21601;-37
2020/12/04 10:14:16;;;;;;;35.58;19.67;;;;;;;3.53;75.73;101456.05;1742958;80;21138;-37
2020/12/04 10:16:46;;;;;;;34.63;19.40;;;;;;;3.53;75.72;101456.05;1743643;80;21122;-37
2020/12/04 10:19:16;;;;;;;32.17;19.60;;;;;;;3.55;75.71;101451.17;1750545;80;21145;-37
2020/12/04 10:21:45;;;;;;;32.90;20.05;;;;;;;3.57;75.75;101452.03;1773056;79;21144;-39
2020/12/04 10:24:14;;;;;;;31.30;19.60;;;;;;;3.58;75.72;101458.17;1740679;80;21380;-37
2020/12/04 10:26:47;;;;;;;33.58;19.27;;;;;;;3.59;75.71;101451.56;1732342;80;21589;-38
2020/12/04 10:29:16;;;;;;;35.85;20.23;;;;;;;3.62;75.72;101444.92;1778839;79;21170;-38
2020/12/04 10:31:45;;;;;;;37.63;20.88;;;;;;;3.63;75.73;101440.09;1772996;79;21715;-38
2020/12/04 10:34:13;;;;;;;45.85;22.67;;;;;;;3.69;75.83;101436.48;1759028;79;21157;-37
2020/12/04 10:36:42;;;;;;;46.13;24.50;;;;;;;3.71;75.75;101437.33;1729822;80;21225;-37
2020/12/04 10:39:11;;;;;;;45.03;25.25;;;;;;;3.71;75.68;101448.34;1749340;80;21688;-37
2020/12/04 10:41:39;;;;;;;41.35;24.02;;;;;;;3.71;75.65;101443.93;1765081;79;21629;-37
2020/12/04 10:44:08;;;;;;;38.53;20.48;;;;;;;3.72;75.65;101442.16;1747527;80;21912;-38
2020/12/04 10:46:36;;;;;;;35.88;22.35;;;;;;;3.74;75.63;101440.37;1777478;79;21514;-39
2020/12/04 10:49:04;;;;;;;37.60;21.93;;;;;;;3.73;75.46;101440.83;1752344;81;21863;-43
2020/12/04 10:51:32;;;;;;;39.45;23.07;;;;;;;3.71;75.44;101437.79;1751226;80;21486;-40
2020/12/04 10:54:00;;;;;;;38.95;21.02;;;;;;;3.69;75.43;101436.48;1755013;81;21241;-37
2020/12/04 10:56:28;;;;;;;39.53;20.52;;;;;;;3.66;75.37;101433.89;1752289;80;21599;-39
2020/12/04 10:58:55;;;;;;;43.38;24.63;;;;;;;3.65;75.40;101451.50;1750906;79;21181;-38
2020/12/04 11:01:37;;;;;;;39.23;22.75;;;;;;;3.66;75.48;101437.84;1755024;80;21156;-39
2020/12/04 11:06:47;;;;;;;38.48;22.25;;;;;;;3.66;75.45;101432.58;1738725;80;21170;-36
2020/12/04 11:09:15;;;;;;;35.78;20.60;;;;;;;3.67;75.52;101429.89;1804233;77;21180;-37
2020/12/04 11:11:43;;;;;;;33.28;20.80;;;;;;;3.67;75.51;101431.66;1755154;79;21225;-38
2020/12/04 11:14:12;;;;;;;31.45;20.60;;;;;;;3.66;75.57;101439.17;1745174;80;21178;-38
2020/12/04 11:16:42;;;;;;;34.10;20.23;;;;;;;3.64;75.67;101431.27;1762373;80;21154;-39
2020/12/04 11:19:10;;;;;;;31.05;19.80;;;;;;;3.62;75.66;101433.05;1753138;80;21165;-39
2020/12/04 11:21:38;;;;;;;36.13;20.40;;;;;;;3.63;75.78;101437.45;1750790;80;21118;-40
2020/12/04 11:24:06;;;;;;;30.57;17.45;;;;;;;3.62;75.82;101437.00;1761466;80;21275;-38
2020/12/04 11:26:34;;;;;;;30.90;19.62;;;;;;;3.61;75.84;101433.95;1750019;80;21154;-40
2020/12/04 11:29:01;;;;;;;32.60;18.85;;;;;;;3.60;75.93;101434.86;1757478;80;21229;-38
2020/12/04 11:31:29;;;;;;;33.85;19.85;;;;;;;3.58;76.01;101437.96;1809469;77;21497;-40
2020/12/04 11:33:57;;;;;;;28.95;18.27;;;;;;;3.57;76.10;101429.61;1814206;77;21653;-37
2020/12/04 11:36:24;;;;;;;29.15;17.60;;;;;;;3.58;76.20;101428.73;1789105;78;21533;-40
2020/12/04 11:38:52;;;;;;;30.30;19.10;;;;;;;3.60;76.36;101427.38;1753404;81;21601;-41
2020/12/04 11:41:20;;;;;;;30.75;18.48;;;;;;;3.61;76.37;101428.67;1756707;80;21149;-40
2020/12/04 11:43:48;;;;;;;30.70;19.55;;;;;;;3.60;76.39;101428.27;1749128;80;21186;-42